Time;durP1;ratioP1;P1;durP2;ratioP2;P2;SDS_P1;SDS_P2;PMS_P1;PMS_P2;Temp;Humidity;BMP_temperature;BMP_pressure;BME280_temperature;BME280_humidity;BME280_pressure;Samples;Min_cycle;Max_cycle;Signal;HPM_P1;HPM_P2
2022/09/22 00:01:17;;;;;;;7.97;1.30;;;15.20;90.80;;;;;;4982974;28;20011;-82
2022/09/22 00:03:48;;;;;;;3.75;1.00;;;15.20;90.90;;;;;;4982380;28;20034;-82
2022/09/22 00:06:18;;;;;;;2.90;1.20;;;15.20;90.80;;;;;;4982774;28;20015;-82
2022/09/22 00:08:47;;;;;;;3.53;1.40;;;15.20;91.00;;;;;;4982765;28;20373;-80
2022/09/22 00:11:18;;;;;;;5.50;1.25;;;15.20;91.10;;;;;;4982504;28;20089;-80
2022/09/22 00:13:51;;;;;;;2.67;1.25;;;15.10;91.20;;;;;;4982802;28;20022;-80
2022/09/22 00:16:21;;;;;;;4.68;1.15;;;15.10;91.30;;;;;;4982541;28;20066;-80
2022/09/22 00:18:47;;;;;;;9.13;1.63;;;15.00;91.40;;;;;;4982594;28;20037;-80
2022/09/22 00:21:16;;;;;;;2.47;1.23;;;15.00;91.50;;;;;;4961863;28;20023;-80
2022/09/22 00:23:43;;;;;;;7.35;1.42;;;15.00;91.60;;;;;;4974083;28;20271;-80
2022/09/22 00:26:11;;;;;;;6.97;1.33;;;15.00;91.70;;;;;;4982178;28;20037;-82
2022/09/22 00:28:37;;;;;;;8.88;1.50;;;15.00;91.70;;;;;;4982292;28;20038;-83
2022/09/22 00:31:12;;;;;;;3.47;1.20;;;14.90;91.80;;;;;;4982527;28;20104;-82
2022/09/22 00:33:39;;;;;;;;;;;14.90;92.00;;;;;;4982933;28;20019;-83
2022/09/22 00:36:06;;;;;;;5.63;1.27;;;14.90;92.10;;;;;;4981881;28;19905;-82
2022/09/22 00:38:32;;;;;;;4.40;1.10;;;14.90;91.80;;;;;;4982363;28;20034;-82
2022/09/22 00:40:59;;;;;;;3.30;1.15;;;14.80;92.10;;;;;;4981911;28;20037;-82
2022/09/22 00:43:28;;;;;;;3.85;1.20;;;14.80;92.20;;;;;;4981217;28;20043;-82
2022/09/22 00:46:01;;;;;;;3.25;1.10;;;14.80;92.40;;;;;;4982112;28;20014;-82
2022/09/22 00:48:31;;;;;;;5.30;1.45;;;14.70;92.50;;;;;;4993246;28;20010;-82
2022/09/22 00:51:01;;;;;;;5.28;1.42;;;14.70;92.40;;;;;;4996892;28;20031;-82
2022/09/22 00:53:28;;;;;;;4.90;1.40;;;14.70;92.40;;;;;;4988214;28;20065;-82
2022/09/22 00:56:16;;;;;;;4.80;1.33;;;14.70;92.50;;;;;;4988208;28;20039;-82
2022/09/22 00:58:53;;;;;;;5.70;1.50;;;14.70;92.50;;;;;;4988414;28;20087;-82
2022/09/22 01:01:19;;;;;;;5.18;1.30;;;14.70;92.60;;;;;;4987322;28;20023;-82
2022/09/22 01:03:45;;;;;;;6.07;1.10;;;14.60;92.30;;;;;;4988180;28;20034;-82
2022/09/22 01:06:15;;;;;;;6.80;1.17;;;14.60;92.60;;;;;;4995184;28;20041;-82
2022/09/22 01:08:43;;;;;;;5.65;1.70;;;14.60;92.70;;;;;;4994843;28;20026;-82
2022/09/22 01:11:12;;;;;;;3.47;1.50;;;14.50;92.80;;;;;;4967884;28;20046;-82
2022/09/22 01:14:02;;;;;;;4.93;1.50;;;14.50;92.80;;;;;;4980935;28;20023;-82
2022/09/22 01:16:30;;;;;;;4.13;1.20;;;14.40;93.10;;;;;;4975963;28;20081;-82
2022/09/22 01:19:27;;;;;;;6.53;1.58;;;14.40;93.10;;;;;;4988309;28;20022;-82
2022/09/22 01:22:21;;;;;;;4.05;1.60;;;14.40;93.20;;;;;;4978317;28;20046;-82
2022/09/22 01:24:59;;;;;;;3.40;1.73;;;14.30;93.40;;;;;;4948701;28;20062;-82
2022/09/22 01:27:51;;;;;;;8.52;1.60;;;14.30;93.50;;;;;;4988273;28;20029;-82
2022/09/22 01:30:22;;;;;;;6.40;1.58;;;14.30;93.70;;;;;;4976889;28;20038;-82
2022/09/22 01:33:22;;;;;;;5.43;1.52;;;14.20;93.90;;;;;;4987829;28;20019;-82
2022/09/22 01:36:09;;;;;;;4.50;1.40;;;14.10;94.10;;;;;;4958791;28;20023;-82
2022/09/22 01:38:55;;;;;;;5.93;1.90;;;14.10;94.10;;;;;;4975931;28;20307;-82
2022/09/22 01:41:36;;;;;;;4.22;1.50;;;14.00;94.20;;;;;;4957158;28;20031;-83
2022/09/22 01:44:08;;;;;;;3.45;1.48;;;14.00;94.40;;;;;;4988273;28;20033;-82
2022/09/22 01:46:43;;;;;;;4.45;1.52;;;14.00;94.60;;;;;;4970473;28;20023;-82
2022/09/22 01:49:13;;;;;;;6.13;1.60;;;13.90;94.70;;;;;;4988027;28;20027;-82
2022/09/22 01:51:53;;;;;;;5.57;1.40;;;13.90;94.60;;;;;;4987979;28;20050;-82
2022/09/22 01:54:30;;;;;;;7.15;1.60;;;13.90;94.80;;;;;;4982205;28;20014;-82
2022/09/22 01:57:03;;;;;;;3.67;1.70;;;13.90;94.90;;;;;;4992542;28;20303;-80
2022/09/22 01:59:33;;;;;;;4.05;1.50;;;13.90;94.90;;;;;;4984490;28;20022;-80
2022/09/22 02:02:07;;;;;;;3.40;1.38;;;14.00;94.90;;;;;;4985054;28;20023;-80
2022/09/22 02:04:55;;;;;;;6.80;1.20;;;13.90;94.90;;;;;;4960367;29;20255;-80
2022/09/22 02:07:32;;;;;;;4.15;1.45;;;13.90;95.10;;;;;;4981431;28;20030;-80
2022/09/22 02:10:03;;;;;;;4.80;1.70;;;13.90;95.10;;;;;;4985053;28;20023;-82
2022/09/22 02:12:28;;;;;;;4.03;1.27;;;13.80;95.00;;;;;;4984253;28;20030;-82
2022/09/22 02:14:54;;;;;;;3.75;1.45;;;13.90;95.10;;;;;;4984804;28;20215;-82
2022/09/22 02:17:20;;;;;;;4.28;1.30;;;13.80;95.10;;;;;;4984811;28;20022;-82
2022/09/22 02:19:46;;;;;;;3.45;1.67;;;13.80;95.10;;;;;;4984515;28;20042;-82
2022/09/22 02:22:12;;;;;;;1.90;1.23;;;13.80;95.20;;;;;;4984092;28;20070;-82
2022/09/22 02:24:43;;;;;;;3.70;1.35;;;13.80;95.20;;;;;;4984789;28;20037;-82
2022/09/22 02:27:26;;;;;;;4.95;1.45;;;13.90;95.30;;;;;;4984587;28;20024;-80
2022/09/22 02:30:23;;;;;;;3.95;1.50;;;13.80;95.20;;;;;;4984514;28;20026;-80
2022/09/22 02:32:52;;;;;;;3.47;1.30;;;13.80;95.20;;;;;;4980643;28;20427;-80
2022/09/22 02:35:19;;;;;;;8.32;1.42;;;13.80;95.20;;;;;;4984914;28;20038;-80
2022/09/22 02:37:54;;;;;;;3.42;1.38;;;13.80;95.30;;;;;;4997783;28;20031;-80
2022/09/22 02:40:56;;;;;;;3.60;1.08;;;13.80;95.30;;;;;;4983740;28;20023;-80
2022/09/22 02:43:31;;;;;;;2.00;1.20;;;13.80;95.40;;;;;;4983661;28;20085;-80
2022/09/22 02:46:12;;;;;;;3.03;1.25;;;13.80;95.40;;;;;;4984318;28;20240;-80
2022/09/22 02:48:42;;;;;;;5.45;1.60;;;13.80;95.40;;;;;;4983724;28;20093;-80
2022/09/22 02:51:08;;;;;;;4.78;1.60;;;13.80;95.50;;;;;;4984125;28;20093;-80
2022/09/22 02:53:35;;;;;;;6.45;1.67;;;13.80;95.50;;;;;;4983755;28;20073;-80
2022/09/22 02:56:04;;;;;;;4.35;1.40;;;13.70;95.40;;;;;;4983412;28;20045;-80
2022/09/22 02:58:29;;;;;;;7.80;1.65;;;13.70;95.50;;;;;;4983964;28;20330;-81
2022/09/22 03:00:55;;;;;;;4.25;1.30;;;13.70;95.60;;;;;;4983958;28;20014;-80
2022/09/22 03:03:21;;;;;;;4.70;1.45;;;13.70;95.40;;;;;;4983828;28;20044;-80
2022/09/22 03:05:46;;;;;;;3.75;1.40;;;13.70;95.50;;;;;;4983921;28;20018;-80
2022/09/22 03:08:12;;;;;;;3.00;1.60;;;13.60;95.50;;;;;;4983839;28;20033;-80
2022/09/22 03:10:38;;;;;;;4.82;1.80;;;13.60;95.60;;;;;;4983057;28;20045;-80
2022/09/22 03:13:03;;;;;;;4.35;1.50;;;13.60;95.40;;;;;;4983886;28;20325;-80
2022/09/22 03:15:29;;;;;;;5.40;1.60;;;13.60;95.60;;;;;;4983874;28;20073;-80
2022/09/22 03:17:54;;;;;;;6.32;1.55;;;13.60;95.50;;;;;;4983924;28;20147;-80
2022/09/22 03:20:20;;;;;;;4.63;1.30;;;13.60;95.40;;;;;;4983729;28;20073;-80
2022/09/22 03:22:46;;;;;;;4.28;1.40;;;13.60;95.40;;;;;;4986847;28;20030;-80
2022/09/22 03:25:12;;;;;;;4.93;1.38;;;13.60;95.40;;;;;;4976070;28;20035;-80
2022/09/22 03:27:38;;;;;;;4.88;1.40;;;13.60;95.10;;;;;;4983801;28;20027;-80
2022/09/22 03:30:05;;;;;;;5.20;1.60;;;13.60;95.20;;;;;;4983480;28;20407;-80
2022/09/22 03:32:31;;;;;;;2.40;1.30;;;13.60;95.20;;;;;;4983359;28;20027;-80
2022/09/22 03:34:57;;;;;;;5.70;1.70;;;13.60;95.20;;;;;;4983426;28;20045;-80
2022/09/22 03:37:24;;;;;;;3.30;1.30;;;13.60;95.20;;;;;;4982401;28;20039;-80
2022/09/22 03:39:49;;;;;;;3.30;1.42;;;13.60;95.30;;;;;;4982212;28;20031;-80
2022/09/22 03:42:15;;;;;;;4.20;1.30;;;13.50;95.20;;;;;;4982684;28;20031;-80
2022/09/22 03:44:41;;;;;;;2.53;1.33;;;13.50;95.40;;;;;;4982648;28;20038;-80
2022/09/22 03:47:07;;;;;;;3.33;1.08;;;13.50;95.40;;;;;;4982968;28;20294;-80
2022/09/22 03:49:33;;;;;;;5.05;1.35;;;13.50;95.40;;;;;;4983406;28;20087;-80
2022/09/22 03:51:58;;;;;;;8.70;1.55;;;13.50;95.40;;;;;;4983079;28;20215;-80
2022/09/22 03:54:24;;;;;;;4.22;1.90;;;13.50;95.50;;;;;;4982891;28;20090;-80
2022/09/22 03:56:50;;;;;;;3.25;1.15;;;13.50;95.60;;;;;;4982809;28;20058;-80
2022/09/22 03:59:16;;;;;;;3.78;1.38;;;13.50;95.60;;;;;;4981364;28;20031;-80
2022/09/22 04:01:42;;;;;;;3.75;1.23;;;13.50;95.60;;;;;;4982419;28;20129;-80
2022/09/22 04:04:08;;;;;;;4.28;1.38;;;13.40;95.70;;;;;;4982482;28;20015;-80
2022/09/22 04:06:34;;;;;;;3.15;1.10;;;13.40;95.90;;;;;;4982877;28;20217;-80
2022/09/22 04:09:00;;;;;;;2.67;1.40;;;13.40;96.10;;;;;;4982903;28;20065;-80
2022/09/22 04:11:26;;;;;;;4.35;1.35;;;13.40;96.10;;;;;;4982324;28;20250;-80
2022/09/22 04:13:52;;;;;;;3.53;1.30;;;13.30;96.30;;;;;;4982749;28;20010;-80
2022/09/22 04:16:18;;;;;;;3.40;1.27;;;13.20;96.50;;;;;;4983050;28;20019;-80
2022/09/22 04:18:44;;;;;;;3.53;1.20;;;13.20;96.60;;;;;;4982642;28;20040;-80
2022/09/22 04:21:09;;;;;;;5.90;1.30;;;13.20;96.80;;;;;;4982031;28;20030;-80
2022/09/22 04:23:35;;;;;;;5.43;1.50;;;13.10;96.50;;;;;;4982554;28;20050;-80
2022/09/22 04:26:01;;;;;;;5.57;1.40;;;13.10;96.70;;;;;;4982386;28;20019;-80
2022/09/22 04:28:28;;;;;;;4.93;1.30;;;13.10;96.70;;;;;;4982575;28;20018;-80
2022/09/22 04:30:54;;;;;;;4.15;1.67;;;13.00;96.80;;;;;;4982556;28;20049;-79
2022/09/22 04:33:20;;;;;;;3.47;1.30;;;13.00;97.00;;;;;;4982990;28;20518;-80
2022/09/22 04:35:48;;;;;;;4.35;1.70;;;12.90;97.00;;;;;;4953311;29;20026;-80
2022/09/22 04:38:14;;;;;;;4.88;1.50;;;12.90;96.90;;;;;;4981150;28;20188;-80
2022/09/22 04:40:39;;;;;;;3.83;1.50;;;12.90;97.00;;;;;;4982207;28;20069;-80
2022/09/22 04:43:05;;;;;;;4.47;1.65;;;12.90;97.10;;;;;;4981930;28;20035;-80
2022/09/22 04:45:31;;;;;;;4.25;1.42;;;12.90;97.20;;;;;;4982434;28;20082;-80
2022/09/22 04:47:56;;;;;;;4.20;1.42;;;12.80;97.40;;;;;;4978355;28;20026;-80
2022/09/22 04:50:22;;;;;;;7.70;2.00;;;12.80;97.50;;;;;;4981756;28;20062;-80
2022/09/22 04:52:50;;;;;;;6.38;1.40;;;12.70;97.60;;;;;;4982341;28;20033;-80
2022/09/22 04:55:16;;;;;;;4.38;1.70;;;12.70;97.80;;;;;;4982211;28;20047;-82
2022/09/22 04:57:47;;;;;;;7.65;1.75;;;12.70;97.80;;;;;;4982196;28;20086;-82
2022/09/22 05:00:13;;;;;;;4.68;1.80;;;12.70;97.90;;;;;;4981802;28;20027;-82
2022/09/22 05:02:39;;;;;;;8.70;1.88;;;12.70;98.00;;;;;;4981848;28;20041;-82
2022/09/22 05:05:05;;;;;;;6.57;1.60;;;12.70;98.00;;;;;;4975183;28;20058;-82
2022/09/22 05:07:31;;;;;;;3.38;1.55;;;12.60;98.00;;;;;;4971141;28;20484;-82
2022/09/22 05:09:57;;;;;;;5.38;1.67;;;12.60;98.00;;;;;;4970720;28;20490;-81
2022/09/22 05:12:23;;;;;;;4.53;1.55;;;12.60;98.00;;;;;;4970111;28;20054;-82
2022/09/22 05:14:49;;;;;;;4.95;1.70;;;12.60;98.00;;;;;;4970216;28;20101;-81
2022/09/22 05:17:14;;;;;;;4.65;1.52;;;12.60;98.00;;;;;;4970294;28;20115;-82
2022/09/22 05:19:40;;;;;;;5.63;1.60;;;12.60;98.10;;;;;;4969562;28;20507;-81
2022/09/22 05:22:06;;;;;;;5.45;1.38;;;12.60;98.10;;;;;;4972248;28;20022;-84
2022/09/22 05:24:31;;;;;;;7.85;1.98;;;12.60;98.20;;;;;;4981492;28;20023;-84
2022/09/22 05:26:58;;;;;;;6.20;1.80;;;12.50;98.20;;;;;;4971566;28;20538;-84
2022/09/22 05:29:24;;;;;;;4.70;2.17;;;12.50;98.30;;;;;;4970697;28;20199;-84
2022/09/22 05:31:49;;;;;;;5.82;1.98;;;12.50;98.40;;;;;;4970548;28;20186;-81
2022/09/22 05:34:15;;;;;;;3.72;1.77;;;12.50;98.50;;;;;;4974368;28;20298;-81
2022/09/22 05:36:41;;;;;;;4.72;1.77;;;12.50;98.50;;;;;;4981198;28;20218;-82
2022/09/22 05:39:07;;;;;;;6.25;1.90;;;12.40;98.90;;;;;;4985250;28;20034;-81
2022/09/22 05:41:33;;;;;;;4.50;1.70;;;12.40;98.80;;;;;;4984773;28;21072;-81
2022/09/22 05:43:58;;;;;;;7.07;1.73;;;12.40;99.10;;;;;;4981871;28;20050;-81
2022/09/22 05:46:24;;;;;;;4.20;1.95;;;12.40;99.00;;;;;;4977763;28;20483;-81
2022/09/22 05:48:49;;;;;;;6.25;2.15;;;12.30;99.00;;;;;;4977300;28;20042;-82
2022/09/22 05:51:15;;;;;;;3.85;1.70;;;12.30;99.20;;;;;;4985281;28;20085;-81
2022/09/22 05:53:41;;;;;;;8.13;2.47;;;12.30;99.30;;;;;;4981846;28;20319;-81
2022/09/22 05:56:06;;;;;;;5.00;2.00;;;12.20;99.40;;;;;;4982547;28;20046;-81
2022/09/22 05:58:32;;;;;;;5.95;2.38;;;12.20;99.50;;;;;;4985021;28;20039;-81
2022/09/22 06:00:57;;;;;;;6.32;2.38;;;12.30;99.40;;;;;;4984812;28;20307;-81
2022/09/22 06:03:23;;;;;;;6.55;2.20;;;12.30;99.50;;;;;;4985094;28;20038;-81
2022/09/22 06:05:49;;;;;;;6.68;2.75;;;12.30;99.50;;;;;;4984487;28;20086;-84
2022/09/22 06:08:15;;;;;;;12.30;2.70;;;12.30;99.50;;;;;;4984910;28;20118;-84
2022/09/22 06:10:40;;;;;;;6.95;2.50;;;12.30;99.50;;;;;;4983396;28;20222;-84
2022/09/22 06:13:08;;;;;;;11.90;2.00;;;12.30;99.60;;;;;;4977851;28;20031;-84
2022/09/22 06:15:35;;;;;;;6.72;2.17;;;12.30;99.70;;;;;;4972909;28;20027;-84
2022/09/22 06:18:02;;;;;;;5.82;2.10;;;12.40;99.70;;;;;;4972920;28;20400;-84
2022/09/22 06:20:28;;;;;;;6.13;2.10;;;12.40;99.70;;;;;;4971840;28;20022;-81
2022/09/22 06:22:55;;;;;;;6.43;2.05;;;12.50;99.60;;;;;;4953855;28;20535;-82
2022/09/22 06:25:22;;;;;;;10.80;1.95;;;12.50;99.50;;;;;;4971561;28;20430;-83
2022/09/22 06:27:56;;;;;;;4.25;2.03;;;12.50;99.40;;;;;;4971582;28;20082;-81
2022/09/22 06:30:22;;;;;;;9.52;2.08;;;12.60;99.30;;;;;;4972264;28;20369;-81
2022/09/22 06:32:53;;;;;;;6.95;1.90;;;12.60;99.20;;;;;;4972085;28;20034;-82
2022/09/22 06:35:18;;;;;;;7.78;1.77;;;12.70;99.10;;;;;;4973081;28;20033;-81
2022/09/22 06:37:46;;;;;;;7.65;2.35;;;12.70;99.00;;;;;;4972932;28;20026;-81
2022/09/22 06:40:12;;;;;;;8.82;2.53;;;12.80;99.10;;;;;;4972835;28;20085;-81
2022/09/22 06:42:37;;;;;;;4.47;1.80;;;12.80;98.90;;;;;;4972723;28;20431;-81
2022/09/22 06:45:04;;;;;;;7.70;2.00;;;12.90;98.90;;;;;;4955240;28;20483;-81
2022/09/22 06:47:31;;;;;;;4.90;1.88;;;12.90;98.90;;;;;;4973064;28;20031;-81
2022/09/22 06:49:57;;;;;;;8.30;2.05;;;12.90;98.70;;;;;;4973163;28;20019;-82
2022/09/22 06:52:22;;;;;;;7.50;2.45;;;13.00;98.80;;;;;;4972821;28;20542;-81
2022/09/22 06:54:48;;;;;;;5.63;1.90;;;13.10;98.70;;;;;;4972462;28;20482;-82
2022/09/22 06:57:16;;;;;;;6.97;1.90;;;13.20;98.60;;;;;;4972262;28;20050;-82
2022/09/22 06:59:42;;;;;;;9.50;2.15;;;13.20;98.50;;;;;;4981786;28;20025;-82
2022/09/22 07:02:09;;;;;;;7.32;2.22;;;13.30;98.30;;;;;;4976745;28;20045;-82
2022/09/22 07:04:34;;;;;;;5.07;1.88;;;13.40;98.20;;;;;;4972751;28;20023;-82
2022/09/22 07:07:02;;;;;;;7.63;1.88;;;13.40;98.00;;;;;;4955230;28;20458;-82
2022/09/22 07:09:29;;;;;;;9.80;2.42;;;13.40;98.00;;;;;;4972845;28;20543;-82
2022/09/22 07:11:56;;;;;;;4.22;1.50;;;13.50;97.90;;;;;;4972320;28;20054;-82
2022/09/22 07:14:21;;;;;;;11.52;2.10;;;13.60;97.70;;;;;;4972243;28;20022;-82
2022/09/22 07:16:47;;;;;;;5.78;1.95;;;13.60;97.60;;;;;;4972398;28;20038;-81
2022/09/22 07:19:14;;;;;;;5.18;1.77;;;13.70;97.60;;;;;;4972134;28;20046;-82
2022/09/22 07:21:39;;;;;;;3.53;1.83;;;13.80;97.60;;;;;;4972548;28;20498;-82
2022/09/22 07:24:08;;;;;;;3.85;1.85;;;14.00;97.40;;;;;;4972277;28;20065;-84
2022/09/22 07:26:37;;;;;;;4.85;1.60;;;14.10;97.20;;;;;;4972141;28;20490;-84
2022/09/22 07:29:06;;;;;;;5.47;1.38;;;14.10;97.00;;;;;;4951596;28;20030;-84
2022/09/22 07:31:33;;;;;;;8.13;1.98;;;14.10;96.80;;;;;;4971651;28;20050;-84
2022/09/22 07:33:59;;;;;;;2.83;1.98;;;14.20;96.90;;;;;;4954694;28;20031;-81
2022/09/22 07:36:26;;;;;;;5.18;1.50;;;14.30;96.60;;;;;;4971726;28;20060;-82
2022/09/22 07:38:56;;;;;;;3.60;1.27;;;14.40;96.60;;;;;;4971848;28;20042;-82
2022/09/22 07:41:27;;;;;;;5.63;1.58;;;14.50;96.40;;;;;;4953470;28;20178;-82
2022/09/22 07:45:11;;;;;;;4.78;1.58;;;14.60;96.30;;;;;;4971752;28;20078;-82
2022/09/22 07:46:48;;;;;;;6.78;1.45;;;14.70;96.10;;;;;;4971465;28;20067;-82
2022/09/22 07:49:14;;;;;;;3.67;1.27;;;14.80;95.90;;;;;;4954584;28;20027;-82
2022/09/22 07:51:40;;;;;;;5.00;1.35;;;14.90;95.70;;;;;;4971595;28;20490;-82
2022/09/22 07:54:08;;;;;;;7.28;1.35;;;15.00;95.30;;;;;;4971383;28;20050;-82
2022/09/22 07:56:40;;;;;;;7.30;1.45;;;15.10;95.00;;;;;;4970335;28;20082;-82
2022/09/22 07:59:09;;;;;;;4.20;1.17;;;15.10;94.90;;;;;;4971333;28;20535;-82
2022/09/22 08:01:43;;;;;;;6.82;1.60;;;15.30;94.70;;;;;;4971354;28;20130;-83
2022/09/22 08:04:15;;;;;;;5.05;1.40;;;15.40;94.30;;;;;;4971466;28;20044;-82
2022/09/22 08:06:45;;;;;;;6.28;1.40;;;15.40;94.30;;;;;;4971391;28;20025;-81
2022/09/22 08:09:12;;;;;;;3.45;1.10;;;15.60;94.10;;;;;;4971366;28;20025;-82
2022/09/22 08:11:39;;;;;;;2.90;1.27;;;15.60;93.90;;;;;;4971283;28;20062;-82
2022/09/22 08:14:09;;;;;;;4.90;1.27;;;15.70;93.70;;;;;;4971139;28;20031;-82
2022/09/22 08:16:38;;;;;;;4.57;1.23;;;15.90;93.60;;;;;;4950653;28;20027;-83
2022/09/22 08:19:11;;;;;;;5.53;1.92;;;16.00;93.30;;;;;;4966071;28;20027;-82
2022/09/22 08:21:38;;;;;;;4.15;1.25;;;16.00;93.40;;;;;;4971220;28;20124;-82
2022/09/22 08:24:09;;;;;;;4.20;1.25;;;16.10;92.80;;;;;;4971301;28;20027;-82
2022/09/22 08:26:37;;;;;;;6.07;1.38;;;16.10;92.90;;;;;;4950617;28;20028;-82
2022/09/22 08:29:05;;;;;;;9.50;1.50;;;16.10;92.80;;;;;;4964576;28;20058;-82
2022/09/22 08:31:31;;;;;;;5.25;1.35;;;16.20;92.60;;;;;;4971117;28;20360;-82
2022/09/22 08:33:57;;;;;;;4.65;1.30;;;16.30;92.60;;;;;;4971350;28;20078;-82
2022/09/22 08:36:26;;;;;;;6.43;1.52;;;16.40;92.40;;;;;;4970863;28;20015;-82
2022/09/22 08:38:53;;;;;;;5.53;1.40;;;16.60;92.20;;;;;;4970955;28;20145;-82
2022/09/22 08:41:24;;;;;;;2.38;0.93;;;16.70;91.90;;;;;;4970793;28;20027;-82
2022/09/22 08:44:10;;;;;;;5.55;1.30;;;16.70;91.60;;;;;;4970887;28;20125;-82
2022/09/22 08:46:37;;;;;;;4.70;1.33;;;16.90;91.60;;;;;;4970843;28;20023;-82
2022/09/22 08:52:24;;;;;;;2.20;0.82;;;16.90;91.30;;;;;;4970914;28;20722;-82
2022/09/22 08:54:50;;;;;;;5.15;1.50;;;17.00;91.50;;;;;;4970936;28;20073;-82
2022/09/22 08:57:34;;;;;;;5.25;1.13;;;17.10;91.20;;;;;;4970529;28;20097;-82
2022/09/22 09:00:18;;;;;;;5.10;1.02;;;17.30;91.30;;;;;;4970759;28;20725;-83
2022/09/22 09:03:03;;;;;;;7.65;1.50;;;17.40;90.90;;;;;;4957723;28;20062;-83
2022/09/22 09:06:03;;;;;;;4.85;1.20;;;17.40;90.60;;;;;;4970804;28;20109;-82
2022/09/22 09:08:31;;;;;;;2.47;1.00;;;17.50;90.50;;;;;;4973090;28;20034;-83
2022/09/22 09:11:47;;;;;;;4.25;1.50;;;17.60;90.40;;;;;;4974517;28;20015;-82
2022/09/22 09:14:22;;;;;;;3.08;0.80;;;17.90;89.50;;;;;;4940927;28;20038;-83
2022/09/22 09:16:53;;;;;;;8.68;1.20;;;18.00;89.20;;;;;;4974706;28;20058;-82
2022/09/22 09:19:37;;;;;;;1.85;0.90;;;18.10;88.30;;;;;;4974439;28;20018;-83
2022/09/22 09:22:23;;;;;;;6.20;1.08;;;18.20;88.50;;;;;;4974420;28;20038;-82
2022/09/22 09:24:56;;;;;;;3.47;1.25;;;18.40;88.20;;;;;;4974540;28;20034;-82
2022/09/22 09:27:29;;;;;;;6.13;1.15;;;18.40;87.70;;;;;;4974639;28;20392;-83
2022/09/22 09:30:18;;;;;;;6.57;1.10;;;18.50;87.30;;;;;;4974446;28;20468;-82
2022/09/22 09:32:59;;;;;;;5.45;1.00;;;18.50;86.50;;;;;;4974254;28;20015;-82
2022/09/22 09:35:47;;;;;;;6.47;1.00;;;18.70;86.90;;;;;;4974424;28;20065;-82
2022/09/22 09:38:18;;;;;;;5.20;0.85;;;18.90;85.30;;;;;;4974140;28;20098;-82
2022/09/22 09:40:51;;;;;;;3.83;0.90;;;19.10;85.40;;;;;;4974142;28;20089;-82
2022/09/22 09:43:19;;;;;;;4.95;1.15;;;19.10;85.60;;;;;;4953356;28;20392;-82
2022/09/22 09:46:03;;;;;;;6.25;0.70;;;19.20;83.50;;;;;;4965290;28;20427;-83
2022/09/22 09:48:43;;;;;;;4.95;0.93;;;19.40;82.30;;;;;;4974094;28;20031;-82
2022/09/22 09:51:13;;;;;;;6.78;1.27;;;19.50;81.80;;;;;;4973985;28;20019;-83
2022/09/22 09:53:48;;;;;;;5.82;0.75;;;19.70;80.30;;;;;;4956367;28;20640;-82
2022/09/22 09:56:26;;;;;;;4.28;0.75;;;19.80;80.40;;;;;;4973903;28;20217;-82
2022/09/22 10:01:50;;;;;;;3.72;0.90;;;20.10;79.80;;;;;;4973944;28;20065;-82
2022/09/22 10:04:27;;;;;;;3.70;1.02;;;20.10;78.70;;;;;;4973593;28;20394;-83
2022/09/22 10:07:17;;;;;;;2.72;0.68;;;20.20;78.20;;;;;;4973645;28;20041;-83
2022/09/22 10:09:43;;;;;;;2.95;0.90;;;20.20;78.60;;;;;;4962921;28;20070;-83
2022/09/22 10:12:31;;;;;;;3.05;0.75;;;20.40;77.90;;;;;;4973820;28;20030;-82
2022/09/22 10:14:58;;;;;;;4.05;0.95;;;20.50;77.60;;;;;;4963007;28;20034;-82
2022/09/22 10:17:32;;;;;;;2.60;0.60;;;20.50;76.90;;;;;;4973561;28;20025;-83
2022/09/22 10:20:23;;;;;;;3.22;0.70;;;20.70;75.60;;;;;;4972460;28;20117;-85
2022/09/22 10:22:49;;;;;;;4.22;1.02;;;20.80;75.50;;;;;;4972983;28;20039;-81
2022/09/22 10:25:25;;;;;;;2.53;0.98;;;20.90;75.80;;;;;;4973422;28;20015;-80
2022/09/22 10:28:11;;;;;;;1.30;0.70;;;20.90;76.10;;;;;;4973371;28;20023;-83
2022/09/22 10:30:38;;;;;;;4.30;0.82;;;21.00;76.60;;;;;;4973536;28;20375;-81
2022/09/22 10:33:13;;;;;;;5.07;1.00;;;21.20;76.90;;;;;;4973465;28;20022;-81
2022/09/22 10:35:41;;;;;;;3.83;0.70;;;21.30;75.40;;;;;;4958255;28;20023;-79
2022/09/22 10:38:20;;;;;;;1.98;0.60;;;21.40;74.90;;;;;;4973852;28;20026;-81
2022/09/22 10:41:15;;;;;;;4.13;0.60;;;21.50;74.60;;;;;;4975682;28;20030;-80
2022/09/22 10:44:00;;;;;;;2.22;0.73;;;21.60;73.90;;;;;;4970652;28;20093;-81
2022/09/22 10:46:51;;;;;;;1.65;0.70;;;21.70;74.90;;;;;;4972988;28;20380;-80
2022/09/22 10:49:45;;;;;;;3.25;0.70;;;21.70;74.10;;;;;;4973092;28;20535;-80
2022/09/22 10:52:36;;;;;;;4.68;0.70;;;21.80;74.00;;;;;;4970343;28;20030;-82
2022/09/22 10:55:26;;;;;;;5.20;1.55;;;21.90;74.20;;;;;;4972430;28;20018;-82
2022/09/22 10:58:07;;;;;;;2.28;0.80;;;22.00;73.60;;;;;;4972074;28;20110;-81
2022/09/22 11:00:34;;;;;;;3.83;0.88;;;22.10;73.10;;;;;;4972180;28;20043;-81
2022/09/22 11:03:23;;;;;;;3.85;0.80;;;22.20;72.30;;;;;;4972896;28;20027;-83
2022/09/22 11:12:30;;;;;;;6.15;1.00;;;22.40;72.10;;;;;;4972640;28;20506;-83
2022/09/22 11:15:09;;;;;;;2.63;0.63;;;22.50;72.20;;;;;;4973385;28;20026;-86
2022/09/22 11:18:14;;;;;;;2.17;0.60;;;22.50;72.40;;;;;;4976728;28;20014;-86
2022/09/22 11:20:50;;;;;;;1.88;0.60;;;22.70;70.80;;;;;;4964438;28;20058;-86
2022/09/22 11:23:42;;;;;;;3.22;0.50;;;22.60;70.60;;;;;;4985792;28;20039;-83
2022/09/22 11:26:16;;;;;;;2.63;0.75;;;22.60;70.50;;;;;;4972315;28;20030;-84
2022/09/22 11:29:20;;;;;;;3.20;0.80;;;22.80;69.60;;;;;;4960193;28;20479;-83
2022/09/22 11:32:11;;;;;;;3.85;0.85;;;22.90;69.00;;;;;;4972549;28;20099;-84
2022/09/22 11:35:05;;;;;;;2.45;0.90;;;23.10;70.30;;;;;;4972290;28;20106;-84
2022/09/22 11:37:45;;;;;;;2.43;0.80;;;23.20;69.30;;;;;;4968300;28;20033;-84
2022/09/22 11:40:32;;;;;;;4.15;0.88;;;23.20;69.10;;;;;;4978014;28;20105;-84
2022/09/22 11:43:25;;;;;;;2.00;0.50;;;23.40;67.90;;;;;;4972328;28;20121;-84
2022/09/22 11:46:04;;;;;;;3.13;0.70;;;23.50;68.20;;;;;;4973370;28;20033;-84
2022/09/22 11:49:01;;;;;;;3.17;0.93;;;23.50;67.40;;;;;;4973924;28;20027;-84
2022/09/22 11:51:32;;;;;;;1.08;0.50;;;23.50;67.20;;;;;;4953699;28;20038;-84
2022/09/22 11:54:24;;;;;;;3.30;1.08;;;23.60;67.30;;;;;;4971772;28;20127;-84
2022/09/22 11:56:55;;;;;;;3.15;0.70;;;23.80;67.10;;;;;;4971506;28;20039;-84
2022/09/22 11:59:47;;;;;;;3.58;0.88;;;23.90;67.60;;;;;;4971658;28;20372;-84
2022/09/22 12:02:37;;;;;;;6.05;0.80;;;24.00;66.40;;;;;;4971629;28;20035;-84
2022/09/22 12:05:06;;;;;;;2.55;0.50;;;24.00;65.50;;;;;;4971741;28;20045;-84
2022/09/22 12:07:54;;;;;;;1.25;0.47;;;24.10;65.20;;;;;;4971712;28;20529;-84
2022/09/22 12:10:33;;;;;;;3.28;0.50;;;24.20;64.70;;;;;;4971626;28;20031;-84
2022/09/22 12:12:59;;;;;;;4.97;0.70;;;24.20;65.30;;;;;;4958723;28;20360;-84
2022/09/22 12:15:51;;;;;;;2.35;0.60;;;24.20;66.00;;;;;;4971587;28;20030;-84
2022/09/22 12:18:35;;;;;;;5.10;0.70;;;24.30;65.90;;;;;;4960367;28;20472;-83
2022/09/22 12:21:17;;;;;;;1.67;0.70;;;24.50;65.00;;;;;;4971152;28;20053;-84
2022/09/22 12:23:48;;;;;;;3.83;0.90;;;24.60;63.80;;;;;;4971052;28;20286;-84
2022/09/22 12:26:26;;;;;;;1.88;0.70;;;24.80;64.50;;;;;;4970989;28;20019;-84
2022/09/22 12:28:52;;;;;;;1.67;0.63;;;24.90;64.70;;;;;;4971673;28;20023;-84
2022/09/22 12:31:19;;;;;;;2.10;0.70;;;24.90;64.50;;;;;;4971289;28;20029;-84
2022/09/22 12:33:48;;;;;;;1.98;0.63;;;25.00;64.10;;;;;;4971448;28;20015;-83
2022/09/22 12:36:16;;;;;;;2.05;0.80;;;25.10;64.00;;;;;;4971153;28;20046;-84
2022/09/22 12:38:43;;;;;;;4.43;0.80;;;25.00;62.50;;;;;;4971276;28;20050;-84
2022/09/22 12:41:17;;;;;;;1.95;0.40;;;25.10;61.90;;;;;;4970884;28;20163;-84
2022/09/22 12:43:44;;;;;;;5.78;0.50;;;25.10;59.80;;;;;;4970600;28;20097;-84
2022/09/22 12:46:23;;;;;;;3.10;0.63;;;25.30;60.10;;;;;;4971066;28;20430;-84
2022/09/22 12:48:49;;;;;;;6.38;0.70;;;25.20;60.70;;;;;;4959478;28;20062;-84
2022/09/22 12:51:23;;;;;;;5.82;0.70;;;25.20;61.60;;;;;;4971446;28;20439;-84
2022/09/22 12:53:50;;;;;;;3.88;0.50;;;25.10;61.30;;;;;;4970837;28;20047;-84
2022/09/22 12:56:43;;;;;;;5.85;0.63;;;25.10;62.60;;;;;;4971032;28;20027;-84
2022/09/22 12:59:36;;;;;;;1.67;0.60;;;25.30;62.10;;;;;;4970765;28;20039;-84
2022/09/22 13:02:17;;;;;;;2.78;0.55;;;25.60;60.00;;;;;;4970467;28;20038;-84
2022/09/22 13:04:54;;;;;;;2.38;0.70;;;25.90;59.50;;;;;;4970982;28;20084;-84
2022/09/22 13:07:35;;;;;;;2.50;0.60;;;26.00;59.50;;;;;;4970812;28;20035;-84
2022/09/22 13:10:22;;;;;;;1.48;0.50;;;25.90;59.20;;;;;;4970820;28;20395;-84
2022/09/22 13:13:09;;;;;;;2.88;0.68;;;25.90;59.50;;;;;;4970745;28;20518;-84
2022/09/22 13:15:46;;;;;;;3.80;0.50;;;26.00;59.30;;;;;;4970973;28;20035;-84
2022/09/22 13:18:38;;;;;;;2.92;0.50;;;26.10;59.10;;;;;;4946013;29;20433;-84
2022/09/22 13:21:12;;;;;;;7.72;0.90;;;26.40;59.50;;;;;;4967969;28;20022;-83
2022/09/22 13:23:51;;;;;;;3.70;0.60;;;26.50;59.30;;;;;;4970485;28;20380;-84
2022/09/22 13:26:27;;;;;;;1.75;0.52;;;26.50;59.30;;;;;;4970386;28;20053;-84
2022/09/22 13:29:18;;;;;;;2.95;1.00;;;26.50;59.90;;;;;;4970699;28;20090;-84